Schedule Details


Flight Number: CTN530
Departure: Franjo Tudman (LDZA) at 14:20
Arrival: Pulkovo (ULLI) at 18:00
Route: OBUTI?DCT?DIMLO?DCT?LEDVA?L156?SOPAV?T709?KOTEK?M866?GERVI?M857?BOKSU?M985?ERIVA?Y237?GATVA?Z494?NUMSU?M990?RISAT?R108?KOLET

Weather Information
LDZA 100030Z 25005KT CAVOK 06/M00 Q1021 NOSIG
ULLI 100030Z 30005MPS 9999 SCT036 03/M02 Q1010 R28L/090060 NOSIG
Schedule Frequency

Route Map